createdAt,value
2022-09-20T00:01:33.373Z,60.20
2022-09-20T00:04:05.753Z,60.51
2022-09-20T00:06:35.251Z,60.75
2022-09-20T00:09:04.840Z,60.81
2022-09-20T00:11:35.548Z,60.70
2022-09-20T00:14:06.561Z,60.65
2022-09-20T00:16:40.316Z,60.82
2022-09-20T00:19:10.093Z,60.90
2022-09-20T00:21:38.463Z,61.14
2022-09-20T00:24:07.664Z,61.28
2022-09-20T00:26:36.632Z,61.08
2022-09-20T00:29:06.171Z,61.04
2022-09-20T00:31:37.341Z,61.19
2022-09-20T00:34:23.310Z,61.15
2022-09-20T00:36:52.039Z,61.29
2022-09-20T00:39:20.476Z,61.48
2022-09-20T00:41:48.838Z,61.56
2022-09-20T00:44:52.553Z,61.58
2022-09-20T00:47:27.711Z,61.83
2022-09-20T00:50:01.561Z,61.82
2022-09-20T00:52:31.430Z,61.86
2022-09-20T00:55:01.933Z,61.91
2022-09-20T00:57:35.705Z,61.97
2022-09-20T01:00:05.461Z,62.32
2022-09-20T01:02:38.883Z,62.03
2022-09-20T01:05:11.189Z,61.86
2022-09-20T01:07:40.272Z,61.95
2022-09-20T01:10:09.140Z,61.95
2022-09-20T01:12:40.877Z,62.04
2022-09-20T01:15:11.374Z,62.11
2022-09-20T01:17:44.641Z,62.09
2022-09-20T01:20:20.713Z,62.07
2022-09-20T01:23:24.022Z,61.97
2022-09-20T01:26:23.630Z,61.90
2022-09-20T01:29:02.438Z,62.03
2022-09-20T01:31:35.616Z,61.82
2022-09-20T01:34:08.824Z,61.78
2022-09-20T01:36:45.364Z,61.98
2022-09-20T01:39:20.332Z,61.79
2022-09-20T01:41:55.536Z,61.38
2022-09-20T01:44:32.472Z,61.17
2022-09-20T01:47:07.200Z,61.24
2022-09-20T01:49:47.185Z,61.05
2022-09-20T01:52:56.393Z,61.15
2022-09-20T01:55:59.455Z,61.29
2022-09-20T01:59:24.747Z,61.23
2022-09-20T02:02:10.245Z,61.29
2022-09-20T02:05:14.919Z,61.20
2022-09-20T02:07:56.141Z,61.54
2022-09-20T02:10:40.297Z,61.41
2022-09-20T02:13:12.931Z,61.33
2022-09-20T02:16:16.896Z,61.01
2022-09-20T02:19:10.947Z,60.30
2022-09-20T02:21:46.622Z,60.16
2022-09-20T02:24:24.708Z,60.16
2022-09-20T02:27:08.666Z,60.10
2022-09-20T02:29:48.194Z,60.60
2022-09-20T02:32:31.919Z,60.68
2022-09-20T02:35:34.193Z,60.95
2022-09-20T02:38:13.202Z,61.02
2022-09-20T02:41:10.976Z,61.29
2022-09-20T02:43:46.575Z,61.29
2022-09-20T02:46:22.681Z,60.70
2022-09-20T02:49:00.359Z,61.07
2022-09-20T02:51:37.556Z,61.49
2022-09-20T02:54:19.228Z,61.75
2022-09-20T02:56:57.769Z,61.84
2022-09-20T02:59:37.108Z,61.95
2022-09-20T03:02:19.845Z,62.39
2022-09-20T03:04:58.859Z,62.33
2022-09-20T03:07:36.098Z,62.74
2022-09-20T03:10:17.566Z,63.00
2022-09-20T03:12:58.187Z,63.15
2022-09-20T03:15:35.442Z,63.21
2022-09-20T03:18:12.637Z,63.59
2022-09-20T03:20:51.816Z,64.05
2022-09-20T03:23:37.419Z,64.21
2022-09-20T03:26:16.950Z,64.29
2022-09-20T03:29:02.525Z,64.68
2022-09-20T03:31:53.097Z,64.66
2022-09-20T03:34:37.383Z,64.96
2022-09-20T03:37:21.911Z,65.13
2022-09-20T03:40:13.280Z,64.95
2022-09-20T03:42:49.972Z,64.97
2022-09-20T03:45:42.692Z,64.87
2022-09-20T03:48:29.843Z,65.01
2022-09-20T03:51:21.537Z,65.07
2022-09-20T03:54:36.832Z,65.44
2022-09-20T03:57:53.487Z,65.52
2022-09-20T04:00:26.166Z,65.60
2022-09-20T04:03:05.637Z,65.43
2022-09-20T04:05:47.038Z,65.34
2022-09-20T04:08:31.627Z,65.31
2022-09-20T04:11:09.000Z,65.35
2022-09-20T04:13:41.411Z,65.25
2022-09-20T04:16:23.981Z,65.15
2022-09-20T04:18:58.452Z,65.14
2022-09-20T04:21:33.469Z,65.36
2022-09-20T04:24:11.847Z,65.23
2022-09-20T04:26:46.557Z,65.33
2022-09-20T04:29:34.609Z,65.56
2022-09-20T04:32:11.633Z,65.56
2022-09-20T04:35:03.548Z,65.57
2022-09-20T04:37:34.618Z,65.52
2022-09-20T04:40:16.358Z,65.47
2022-09-20T04:43:24.479Z,65.58
2022-09-20T04:46:21.495Z,65.32
2022-09-20T04:49:29.827Z,65.26
2022-09-20T04:52:40.231Z,65.56
2022-09-20T04:55:37.412Z,65.50
2022-09-20T04:58:47.130Z,65.33
2022-09-20T05:01:49.592Z,65.02
2022-09-20T05:04:57.891Z,64.73
2022-09-20T05:08:17.368Z,64.60
2022-09-20T05:11:27.844Z,64.36
2022-09-20T05:14:13.003Z,64.08
2022-09-20T05:16:59.274Z,63.90
2022-09-20T05:19:35.719Z,64.07
2022-09-20T05:22:42.307Z,64.15
2022-09-20T05:25:35.094Z,64.09
2022-09-20T05:28:11.731Z,64.10
2022-09-20T05:30:47.446Z,64.28
2022-09-20T05:33:26.078Z,64.42
2022-09-20T05:36:06.619Z,64.85
2022-09-20T05:38:47.441Z,65.03
2022-09-20T05:41:25.120Z,65.22
2022-09-20T05:44:02.831Z,65.33
2022-09-20T05:46:38.260Z,65.55
2022-09-20T05:49:23.840Z,65.58
2022-09-20T05:52:08.866Z,65.93
2022-09-20T05:55:02.399Z,65.95
2022-09-20T05:57:48.119Z,66.09
2022-09-20T06:00:19.832Z,66.27
2022-09-20T06:02:56.264Z,66.30
2022-09-20T06:05:44.091Z,66.30
2022-09-20T06:08:53.055Z,66.19
2022-09-20T06:11:48.009Z,66.34
2022-09-20T06:14:39.576Z,66.55
2022-09-20T06:17:19.103Z,66.30
2022-09-20T06:19:54.237Z,66.44
2022-09-20T06:22:29.799Z,66.24
2022-09-20T06:25:04.534Z,66.29
2022-09-20T06:27:39.420Z,66.41
2022-09-20T06:30:16.140Z,66.17
2022-09-20T06:32:56.096Z,65.72
2022-09-20T06:35:27.644Z,65.96
2022-09-20T06:38:25.500Z,65.99
2022-09-20T06:41:11.441Z,66.15
2022-09-20T06:43:40.639Z,66.07
2022-09-20T06:46:10.769Z,66.17
2022-09-20T06:48:40.112Z,66.21
2022-09-20T06:51:09.514Z,66.19
2022-09-20T06:53:42.863Z,66.21
2022-09-20T06:56:17.227Z,66.19
2022-09-20T06:58:45.887Z,66.23
2022-09-20T07:01:15.106Z,66.28
2022-09-20T07:03:46.169Z,66.11
2022-09-20T07:06:19.954Z,65.96
2022-09-20T07:08:49.421Z,66.42
2022-09-20T07:11:18.980Z,66.35
2022-09-20T07:13:52.287Z,65.87
2022-09-20T07:16:21.130Z,66.02
2022-09-20T07:18:50.176Z,65.95
2022-09-20T07:21:20.428Z,65.93
2022-09-20T07:23:51.451Z,66.04
2022-09-20T07:26:22.126Z,66.10
2022-09-20T07:28:50.973Z,66.05
2022-09-20T07:31:19.943Z,66.16
2022-09-20T07:33:48.454Z,66.00
2022-09-20T07:36:17.706Z,65.74
2022-09-20T07:38:50.606Z,65.55
2022-09-20T07:41:19.958Z,65.45
2022-09-20T07:43:48.387Z,65.39
2022-09-20T07:46:16.752Z,65.48
2022-09-20T07:48:45.179Z,65.30
2022-09-20T07:51:15.030Z,65.32
2022-09-20T07:53:43.819Z,64.86
2022-09-20T07:56:18.525Z,64.65
2022-09-20T07:58:52.170Z,64.59
2022-09-20T08:01:23.256Z,64.14
2022-09-20T08:03:52.288Z,63.98
2022-09-20T08:06:21.543Z,63.90
2022-09-20T08:08:51.755Z,63.76
2022-09-20T08:11:27.748Z,63.76
2022-09-20T08:14:12.840Z,63.84
2022-09-20T08:16:43.514Z,63.74
2022-09-20T08:19:17.464Z,62.85
2022-09-20T08:21:46.045Z,62.75
2022-09-20T08:24:16.543Z,62.70
2022-09-20T08:26:46.613Z,62.59
2022-09-20T08:29:15.411Z,62.69
2022-09-20T08:31:44.690Z,62.48
2022-09-20T08:34:15.285Z,62.37
2022-09-20T08:36:47.018Z,62.52
2022-09-20T08:42:14.667Z,62.53
2022-09-20T08:45:00.461Z,62.11
2022-09-20T08:47:31.747Z,62.29
2022-09-20T08:50:09.041Z,62.23
2022-09-20T08:52:40.903Z,61.83
2022-09-20T08:55:17.994Z,61.86
2022-09-20T08:57:50.590Z,61.71
2022-09-20T09:00:21.099Z,61.59
2022-09-20T09:02:53.587Z,61.43
2022-09-20T09:05:32.879Z,61.12
2022-09-20T09:08:05.039Z,61.23
2022-09-20T09:10:45.914Z,60.91
2022-09-20T09:13:25.001Z,60.76
2022-09-20T09:15:58.308Z,60.68
2022-09-20T09:18:34.953Z,60.62
2022-09-20T09:21:05.528Z,60.15
2022-09-20T09:23:42.750Z,59.92
2022-09-20T09:26:19.875Z,60.20
2022-09-20T09:29:10.049Z,60.08
2022-09-20T09:31:39.883Z,59.99
2022-09-20T09:34:26.029Z,59.44
2022-09-20T09:36:55.715Z,59.38
2022-09-20T09:39:29.632Z,59.14
2022-09-20T09:42:01.308Z,58.98
2022-09-20T09:44:34.073Z,58.83
2022-09-20T09:47:02.681Z,58.34
2022-09-20T09:49:36.577Z,57.97
2022-09-20T09:52:13.793Z,57.37
2022-09-20T09:54:47.133Z,57.64
2022-09-20T09:57:32.104Z,57.38
2022-09-20T10:00:18.132Z,57.16
2022-09-20T10:03:09.037Z,57.07
2022-09-20T10:05:44.247Z,56.82
2022-09-20T10:08:25.397Z,56.11
2022-09-20T10:11:09.344Z,55.94
2022-09-20T10:13:45.884Z,56.04
2022-09-20T10:16:29.283Z,56.15
2022-09-20T10:19:08.424Z,56.62
2022-09-20T10:21:49.071Z,56.65
2022-09-20T10:24:30.769Z,56.26
2022-09-20T10:27:20.406Z,55.98
2022-09-20T10:30:01.789Z,55.69
2022-09-20T10:32:46.898Z,55.59
2022-09-20T10:35:26.223Z,55.62
2022-09-20T10:38:14.690Z,55.24
2022-09-20T10:41:21.784Z,54.73
2022-09-20T10:44:05.085Z,54.38
2022-09-20T10:46:47.003Z,54.59
2022-09-20T10:49:28.478Z,54.61
2022-09-20T10:52:17.795Z,54.21
2022-09-20T10:55:05.396Z,53.88
2022-09-20T10:57:57.051Z,54.27
2022-09-20T11:00:27.652Z,54.31
2022-09-20T11:03:10.520Z,53.93
2022-09-20T11:05:48.735Z,53.50
2022-09-20T11:08:22.954Z,53.28
2022-09-20T11:10:55.578Z,52.95
2022-09-20T11:13:31.704Z,53.26
2022-09-20T11:16:07.092Z,53.62
2022-09-20T11:18:40.883Z,53.72
2022-09-20T11:21:16.735Z,53.98
2022-09-20T11:23:53.618Z,53.34
2022-09-20T11:26:29.545Z,52.82
2022-09-20T11:29:02.955Z,52.70
2022-09-20T11:31:36.213Z,52.20
2022-09-20T11:34:13.882Z,50.94
2022-09-20T11:36:52.419Z,51.16
2022-09-20T11:39:24.162Z,51.08
2022-09-20T11:41:56.995Z,51.26
2022-09-20T11:44:25.536Z,51.43
2022-09-20T11:47:00.075Z,51.28
2022-09-20T11:49:46.983Z,51.33
2022-09-20T11:52:36.964Z,51.55
2022-09-20T11:55:41.529Z,51.97
2022-09-20T11:58:10.706Z,52.67
2022-09-20T12:00:43.196Z,52.66
2022-09-20T12:03:25.623Z,52.31
2022-09-20T12:06:00.436Z,52.21
2022-09-20T12:08:33.714Z,52.54
2022-09-20T12:11:06.515Z,52.57
2022-09-20T12:13:39.066Z,52.21
2022-09-20T12:16:09.362Z,51.98
2022-09-20T12:19:02.007Z,51.50
2022-09-20T12:21:30.475Z,51.83
2022-09-20T12:24:19.188Z,50.53
2022-09-20T12:26:49.844Z,50.84
2022-09-20T12:29:57.509Z,50.04
2022-09-20T12:32:55.184Z,49.43
2022-09-20T12:36:00.926Z,48.53
2022-09-20T12:38:46.756Z,48.71
2022-09-20T12:41:27.610Z,48.58
2022-09-20T12:44:00.815Z,47.33
2022-09-20T12:46:36.307Z,47.93
2022-09-20T12:49:55.552Z,48.26
2022-09-20T12:53:00.788Z,48.37
2022-09-20T12:55:52.997Z,48.79
2022-09-20T12:58:35.135Z,49.25
2022-09-20T13:01:29.295Z,49.78
2022-09-20T13:04:17.516Z,50.40
2022-09-20T13:06:46.732Z,50.42
2022-09-20T13:09:16.777Z,50.57
2022-09-20T13:11:49.035Z,51.06
2022-09-20T13:14:22.940Z,51.12
2022-09-20T13:16:55.168Z,50.57
2022-09-20T13:19:29.846Z,50.15
2022-09-20T13:22:02.630Z,49.74
2022-09-20T13:24:35.786Z,49.70
2022-09-20T13:27:09.154Z,49.33
2022-09-20T13:29:42.471Z,49.52
2022-09-20T13:32:18.878Z,49.73
2022-09-20T13:34:47.350Z,49.76
2022-09-20T13:37:23.722Z,49.85
2022-09-20T13:39:57.873Z,49.99
2022-09-20T13:42:28.941Z,49.80
2022-09-20T13:44:59.904Z,49.85
2022-09-20T13:47:30.449Z,49.99
2022-09-20T13:50:03.235Z,49.09
2022-09-20T13:52:33.148Z,48.87
2022-09-20T13:55:01.457Z,48.72
2022-09-20T13:57:32.192Z,48.65
2022-09-20T14:00:02.770Z,48.68
2022-09-20T14:02:34.003Z,48.91
2022-09-20T14:05:06.055Z,49.17
2022-09-20T14:07:37.006Z,50.54
2022-09-20T14:10:06.192Z,52.18
2022-09-20T14:12:35.988Z,52.92
2022-09-20T14:15:11.530Z,53.65
2022-09-20T14:17:40.149Z,54.38
2022-09-20T14:20:15.536Z,54.91
2022-09-20T14:22:45.438Z,55.20
2022-09-20T14:25:22.528Z,55.73
2022-09-20T14:28:06.466Z,56.21
2022-09-20T14:30:38.719Z,56.21
2022-09-20T14:33:16.148Z,56.31
2022-09-20T14:35:49.512Z,56.52
2022-09-20T14:38:20.702Z,56.78
2022-09-20T14:40:50.760Z,56.85
2022-09-20T14:43:27.021Z,57.50
2022-09-20T14:46:00.762Z,57.38
2022-09-20T14:48:36.487Z,57.58
2022-09-20T14:51:22.291Z,57.66
2022-09-20T14:53:52.741Z,57.58
2022-09-20T14:56:33.898Z,57.61
2022-09-20T14:59:07.435Z,57.26
2022-09-20T15:01:41.265Z,56.83
2022-09-20T15:04:12.407Z,57.08
2022-09-20T15:06:40.844Z,57.52
2022-09-20T15:09:12.367Z,57.68
2022-09-20T15:11:42.373Z,57.88
2022-09-20T15:14:10.687Z,58.19
2022-09-20T15:16:40.643Z,58.53
2022-09-20T15:19:11.114Z,58.74
2022-09-20T15:21:39.422Z,59.03
2022-09-20T15:24:07.924Z,58.97
2022-09-20T15:26:36.255Z,59.14
2022-09-20T15:29:04.783Z,59.46
2022-09-20T15:31:33.255Z,59.29
2022-09-20T15:34:03.078Z,59.15
2022-09-20T15:36:32.386Z,59.42
2022-09-20T15:39:01.358Z,59.48
2022-09-20T15:41:31.478Z,59.33
2022-09-20T15:44:01.779Z,59.47
2022-09-20T15:46:30.281Z,59.37
2022-09-20T15:49:01.279Z,59.29
2022-09-20T15:51:31.582Z,58.88
2022-09-20T15:54:01.526Z,58.82
2022-09-20T15:56:31.649Z,58.73
2022-09-20T15:59:01.322Z,58.85
2022-09-20T16:01:32.189Z,58.64
2022-09-20T16:04:01.701Z,59.13
2022-09-20T16:06:33.931Z,59.25
2022-09-20T16:09:02.254Z,59.57
2022-09-20T16:11:31.134Z,59.57
2022-09-20T16:14:02.010Z,59.44
2022-09-20T16:16:36.097Z,59.42
2022-09-20T16:19:20.976Z,59.45
2022-09-20T16:21:58.081Z,59.68
2022-09-20T16:24:29.484Z,59.89
2022-09-20T16:26:58.096Z,59.81
2022-09-20T16:29:27.060Z,59.84
2022-09-20T16:31:56.663Z,59.76
2022-09-20T16:34:28.539Z,59.89
2022-09-20T16:37:00.095Z,59.89
2022-09-20T16:39:29.779Z,59.95
2022-09-20T16:42:01.161Z,60.07
2022-09-20T16:44:29.547Z,60.25
2022-09-20T16:46:57.955Z,60.08
2022-09-20T16:49:29.603Z,60.07
2022-09-20T16:51:59.472Z,60.12
2022-09-20T16:54:31.720Z,60.21
2022-09-20T16:57:00.864Z,60.29
2022-09-20T16:59:29.231Z,60.40
2022-09-20T17:01:58.031Z,60.72
2022-09-20T17:04:26.477Z,60.67
2022-09-20T17:06:54.874Z,61.18
2022-09-20T17:09:24.696Z,60.85
2022-09-20T17:11:53.911Z,60.75
2022-09-20T17:14:22.596Z,60.74
2022-09-20T17:16:51.416Z,60.61
2022-09-20T17:19:21.791Z,60.52
2022-09-20T17:21:51.930Z,60.65
2022-09-20T17:24:21.280Z,60.78
2022-09-20T17:26:52.082Z,60.70
2022-09-20T17:29:21.940Z,60.69
2022-09-20T17:31:58.795Z,60.70
2022-09-20T17:34:29.619Z,60.69
2022-09-20T17:36:57.997Z,60.82
2022-09-20T17:39:26.351Z,60.78
2022-09-20T17:41:56.052Z,60.83
2022-09-20T17:44:24.483Z,60.94
2022-09-20T17:46:54.298Z,60.96
2022-09-20T17:49:24.531Z,61.03
2022-09-20T17:51:54.364Z,61.11
2022-09-20T17:54:24.720Z,60.99
2022-09-20T17:56:56.787Z,60.88
2022-09-20T17:59:25.521Z,61.00
2022-09-20T18:01:55.057Z,60.90
2022-09-20T18:04:24.702Z,61.25
2022-09-20T18:06:54.762Z,61.51
2022-09-20T18:09:25.628Z,61.70
2022-09-20T18:11:57.020Z,61.65
2022-09-20T18:14:27.618Z,61.79
2022-09-20T18:16:58.209Z,61.87
2022-09-20T18:19:33.030Z,61.80
2022-09-20T18:22:02.305Z,61.78
2022-09-20T18:24:31.779Z,61.79
2022-09-20T18:27:01.925Z,61.90
2022-09-20T18:29:33.624Z,61.84
2022-09-20T18:32:02.358Z,61.75
2022-09-20T18:34:32.727Z,61.80
2022-09-20T18:37:04.212Z,61.79
2022-09-20T18:39:33.868Z,61.75
2022-09-20T18:42:04.003Z,61.67
2022-09-20T18:44:34.459Z,61.77
2022-09-20T18:47:04.251Z,62.06
2022-09-20T18:49:33.539Z,62.16
2022-09-20T18:52:02.113Z,62.04
2022-09-20T18:54:33.726Z,62.13
2022-09-20T18:57:04.189Z,62.17
2022-09-20T18:59:32.853Z,62.09
2022-09-20T19:02:20.039Z,62.16
2022-09-20T19:05:23.786Z,62.51
2022-09-20T19:08:17.052Z,62.53
2022-09-20T19:10:50.007Z,62.61
2022-09-20T19:13:30.974Z,62.59
2022-09-20T19:16:15.627Z,62.61
2022-09-20T19:19:09.355Z,62.56
2022-09-20T19:21:46.844Z,62.35
2022-09-20T19:24:26.401Z,62.33
2022-09-20T19:26:55.106Z,62.60
2022-09-20T19:29:27.054Z,62.84
2022-09-20T19:31:57.651Z,62.57
2022-09-20T19:34:28.077Z,62.77
2022-09-20T19:37:05.643Z,62.58
2022-09-20T19:39:46.365Z,62.63
2022-09-20T19:42:21.963Z,62.99
2022-09-20T19:44:57.132Z,63.01
2022-09-20T19:47:36.910Z,63.03
2022-09-20T19:50:12.881Z,63.05
2022-09-20T19:52:41.952Z,63.02
2022-09-20T19:55:13.407Z,63.11
2022-09-20T19:57:47.080Z,63.10
2022-09-20T20:00:18.345Z,63.61
2022-09-20T20:02:47.743Z,63.10
2022-09-20T20:05:18.814Z,63.12
2022-09-20T20:07:53.928Z,63.18
2022-09-20T20:10:31.550Z,63.30
2022-09-20T20:13:28.889Z,63.40
2022-09-20T20:16:03.422Z,63.30
2022-09-20T20:18:41.699Z,63.39
2022-09-20T20:21:18.559Z,63.21
2022-09-20T20:24:09.136Z,63.37
2022-09-20T20:26:37.524Z,63.20
2022-09-20T20:29:06.069Z,62.96
2022-09-20T20:31:36.024Z,62.97
2022-09-20T20:34:04.849Z,63.21
2022-09-20T20:36:33.235Z,63.09
2022-09-20T20:39:03.073Z,63.04
2022-09-20T20:41:32.078Z,63.04
2022-09-20T20:44:00.446Z,63.04
2022-09-20T20:46:29.305Z,62.93
2022-09-20T20:48:59.464Z,63.10
2022-09-20T20:51:28.299Z,63.24
2022-09-20T20:53:58.367Z,62.99
2022-09-20T20:56:28.991Z,62.98
2022-09-20T20:59:00.955Z,63.02
2022-09-20T21:01:30.883Z,62.74
2022-09-20T21:04:01.074Z,63.05
2022-09-20T21:06:32.095Z,63.15
2022-09-20T21:09:00.547Z,63.05
2022-09-20T21:11:30.551Z,63.33
2022-09-20T21:14:01.046Z,63.30
2022-09-20T21:16:31.361Z,63.25
2022-09-20T21:19:01.455Z,63.27
2022-09-20T21:21:31.654Z,63.15
2022-09-20T21:24:02.099Z,62.85
2022-09-20T21:26:33.226Z,62.88
2022-09-20T21:29:02.896Z,63.06
2022-09-20T21:31:32.621Z,62.94
2022-09-20T21:34:03.271Z,62.89
2022-09-20T21:36:32.040Z,63.01
2022-09-20T21:39:00.392Z,63.16
2022-09-20T21:41:30.571Z,63.04
2022-09-20T21:44:00.704Z,63.00
2022-09-20T21:46:30.531Z,62.89
2022-09-20T21:48:59.894Z,62.93
2022-09-20T21:51:31.287Z,63.07
2022-09-20T21:54:01.879Z,63.30
2022-09-20T21:56:32.731Z,63.17
2022-09-20T21:59:04.086Z,62.76
2022-09-20T22:01:34.746Z,63.07
2022-09-20T22:04:07.244Z,63.16
2022-09-20T22:06:39.027Z,63.32
2022-09-20T22:09:09.261Z,63.23
2022-09-20T22:11:41.015Z,63.21
2022-09-20T22:14:10.495Z,63.09
2022-09-20T22:16:41.151Z,63.07
2022-09-20T22:19:11.020Z,62.87
2022-09-20T22:21:42.139Z,63.01
2022-09-20T22:24:12.467Z,63.14
2022-09-20T22:26:42.711Z,63.42
2022-09-20T22:29:11.635Z,63.27
2022-09-20T22:31:45.440Z,63.36
2022-09-20T22:34:15.201Z,63.86
2022-09-20T22:36:45.623Z,63.57
2022-09-20T22:39:14.494Z,63.38
2022-09-20T22:41:43.582Z,63.27
2022-09-20T22:44:12.840Z,63.15
2022-09-20T22:46:41.513Z,63.19
2022-09-20T22:49:10.887Z,63.19
2022-09-20T22:51:39.647Z,63.29
2022-09-20T22:54:11.082Z,63.02
2022-09-20T22:56:41.487Z,62.97
2022-09-20T22:59:11.851Z,63.24
2022-09-20T23:01:42.562Z,63.18
2022-09-20T23:04:13.139Z,63.17
2022-09-20T23:06:43.540Z,63.17
2022-09-20T23:09:15.807Z,62.95
2022-09-20T23:11:44.787Z,62.78
2022-09-20T23:14:14.627Z,62.94
2022-09-20T23:16:43.599Z,62.75
2022-09-20T23:19:12.831Z,62.80
2022-09-20T23:21:42.631Z,63.10
2022-09-20T23:24:17.294Z,63.46
2022-09-20T23:26:46.179Z,63.51
2022-09-20T23:29:16.667Z,63.35
2022-09-20T23:31:47.305Z,63.61
2022-09-20T23:34:17.495Z,63.56
2022-09-20T23:36:46.839Z,63.72
2022-09-20T23:39:16.968Z,63.48
2022-09-20T23:41:50.577Z,63.33
2022-09-20T23:44:19.394Z,63.40
2022-09-20T23:46:47.701Z,63.48
2022-09-20T23:49:16.501Z,63.68
2022-09-20T23:51:44.827Z,63.21
2022-09-20T23:54:13.272Z,62.81
2022-09-20T23:56:43.124Z,63.35
2022-09-20T23:59:11.536Z,63.27
